createdAt,value
2018-11-05T00:01:20.434Z,28.63
2018-11-05T00:03:48.620Z,26.60
2018-11-05T00:06:16.801Z,27.70
2018-11-05T00:08:44.982Z,26.17
2018-11-05T00:11:13.165Z,26.63
2018-11-05T00:13:41.353Z,26.73
2018-11-05T00:16:09.538Z,27.73
2018-11-05T00:18:37.710Z,26.80
2018-11-05T00:21:05.957Z,25.87
2018-11-05T00:23:34.160Z,26.77
2018-11-05T00:26:02.348Z,26.47
2018-11-05T00:28:30.565Z,25.70
2018-11-05T00:30:58.745Z,24.73
2018-11-05T00:33:26.957Z,25.70
2018-11-05T00:35:55.125Z,25.63
2018-11-05T00:38:23.314Z,25.70
2018-11-05T00:40:51.494Z,24.27
2018-11-05T00:43:19.697Z,24.67
2018-11-05T00:45:47.956Z,26.13
2018-11-05T00:48:16.055Z,26.17
2018-11-05T00:50:44.222Z,27.50
2018-11-05T00:53:12.421Z,25.37
2018-11-05T00:55:40.612Z,25.93
2018-11-05T00:58:08.809Z,28.10
2018-11-05T01:00:37.251Z,26.00
2018-11-05T01:03:05.522Z,26.60
2018-11-05T01:05:33.717Z,25.73
2018-11-05T01:08:01.906Z,24.80
2018-11-05T01:10:30.087Z,25.13
2018-11-05T01:12:58.334Z,27.03
2018-11-05T01:15:26.497Z,27.00
2018-11-05T01:17:54.678Z,25.43
2018-11-05T01:20:22.891Z,24.97
2018-11-05T01:22:51.082Z,26.40
2018-11-05T01:25:19.272Z,28.70
2018-11-05T01:27:47.462Z,26.57
2018-11-05T01:30:15.650Z,25.07
2018-11-05T01:32:43.838Z,25.23
2018-11-05T01:35:13.090Z,26.00
2018-11-05T01:37:41.290Z,24.83
2018-11-05T01:40:11.902Z,25.30
2018-11-05T01:42:40.100Z,24.17
2018-11-05T01:45:09.572Z,28.33
2018-11-05T01:47:37.789Z,25.33
2018-11-05T01:50:07.227Z,24.73
2018-11-05T01:52:35.441Z,26.10
2018-11-05T01:55:03.665Z,26.60
2018-11-05T01:57:31.877Z,23.90
2018-11-05T02:00:00.082Z,25.20
2018-11-05T02:02:28.273Z,25.00
2018-11-05T02:04:56.465Z,24.80
2018-11-05T02:07:25.210Z,25.70
2018-11-05T02:09:53.442Z,25.20
2018-11-05T02:12:21.638Z,24.57
2018-11-05T02:14:49.830Z,25.73
2018-11-05T02:17:18.021Z,23.37
2018-11-05T02:19:46.200Z,26.57
2018-11-05T02:22:14.421Z,25.80
2018-11-05T02:24:42.973Z,25.40
2018-11-05T02:27:11.301Z,28.67
2018-11-05T02:29:39.378Z,25.83
2018-11-05T02:32:07.576Z,26.27
2018-11-05T02:34:35.766Z,28.00
2018-11-05T02:37:04.056Z,27.00
2018-11-05T02:39:32.258Z,25.67
2018-11-05T02:42:00.456Z,27.43
2018-11-05T02:44:28.649Z,30.90
2018-11-05T02:46:56.845Z,28.40
2018-11-05T02:49:25.056Z,29.57
2018-11-05T02:51:53.258Z,28.03
2018-11-05T02:54:21.446Z,28.93
2018-11-05T02:56:49.633Z,26.93
2018-11-05T02:59:17.879Z,29.40
2018-11-05T03:01:46.162Z,30.80
2018-11-05T03:04:14.370Z,30.27
2018-11-05T03:06:42.553Z,34.07
2018-11-05T03:09:12.128Z,31.00
2018-11-05T03:11:40.653Z,31.07
2018-11-05T03:14:09.091Z,29.93
2018-11-05T03:16:37.862Z,31.60
2018-11-05T03:19:06.257Z,29.30
2018-11-05T03:21:34.443Z,30.53
2018-11-05T03:24:02.693Z,30.83
2018-11-05T03:26:31.178Z,28.70
2018-11-05T03:28:59.506Z,31.20
2018-11-05T03:31:27.689Z,30.90
2018-11-05T03:33:55.912Z,29.57
2018-11-05T03:36:24.209Z,29.60
2018-11-05T03:38:52.418Z,29.60
2018-11-05T03:41:20.643Z,30.17
2018-11-05T03:43:48.893Z,27.93
2018-11-05T03:46:17.090Z,30.10
2018-11-05T03:48:45.286Z,28.93
2018-11-05T03:51:13.477Z,28.50
2018-11-05T03:53:41.684Z,28.33
2018-11-05T03:56:09.908Z,28.53
2018-11-05T03:58:38.064Z,29.23
2018-11-05T04:01:06.273Z,29.20
2018-11-05T04:03:34.498Z,27.97
2018-11-05T04:06:02.665Z,28.87
2018-11-05T04:08:30.858Z,27.63
2018-11-05T04:10:59.037Z,27.47
2018-11-05T04:13:27.250Z,27.70
2018-11-05T04:15:55.492Z,27.23
2018-11-05T04:18:23.642Z,25.83
2018-11-05T04:20:51.825Z,26.03
2018-11-05T04:23:20.026Z,24.67
2018-11-05T04:25:48.213Z,26.97
2018-11-05T04:28:16.401Z,25.80
2018-11-05T04:30:44.589Z,27.70
2018-11-05T04:33:12.797Z,27.70
2018-11-05T04:35:40.977Z,26.43
2018-11-05T04:38:09.177Z,28.17
2018-11-05T04:40:37.382Z,28.03
2018-11-05T04:43:05.600Z,27.70
2018-11-05T04:45:33.796Z,27.77
2018-11-05T04:48:01.999Z,25.57
2018-11-05T04:50:30.196Z,26.10
2018-11-05T04:52:58.409Z,27.67
2018-11-05T04:55:26.615Z,29.33
2018-11-05T04:57:54.837Z,27.40
2018-11-05T05:00:23.038Z,28.20
2018-11-05T05:02:51.234Z,25.73
2018-11-05T05:05:19.430Z,23.17
2018-11-05T05:07:47.637Z,22.40
2018-11-05T05:10:15.838Z,22.20
2018-11-05T05:12:44.301Z,23.00
2018-11-05T05:15:12.802Z,24.67
2018-11-05T05:17:41.478Z,23.77
2018-11-05T05:20:12.026Z,22.60
2018-11-05T05:22:40.388Z,20.87
2018-11-05T05:25:08.473Z,22.30
2018-11-05T05:27:36.691Z,22.37
2018-11-05T05:30:07.873Z,21.93
2018-11-05T05:32:36.054Z,21.33
2018-11-05T05:35:04.264Z,22.10
2018-11-05T05:37:32.492Z,22.23
2018-11-05T05:40:00.716Z,27.43
2018-11-05T05:42:28.945Z,25.73
2018-11-05T05:44:57.161Z,23.80
2018-11-05T05:47:25.353Z,26.80
2018-11-05T05:49:53.607Z,27.37
2018-11-05T05:52:21.811Z,24.97
2018-11-05T05:54:50.005Z,24.17
2018-11-05T05:57:18.198Z,26.53
2018-11-05T05:59:46.484Z,26.83
2018-11-05T06:02:14.669Z,27.87
2018-11-05T06:04:42.865Z,26.80
2018-11-05T06:07:11.061Z,25.20
2018-11-05T06:09:39.266Z,26.87
2018-11-05T06:12:07.456Z,29.80
2018-11-05T06:14:35.666Z,26.10
2018-11-05T06:17:03.841Z,27.23
2018-11-05T06:19:32.045Z,27.90
2018-11-05T06:22:00.306Z,26.40
2018-11-05T06:24:28.439Z,28.10
2018-11-05T06:26:56.621Z,28.70
2018-11-05T06:29:24.817Z,26.50
2018-11-05T06:31:52.999Z,28.53
2018-11-05T06:34:21.207Z,26.83
2018-11-05T06:36:49.381Z,24.80
2018-11-05T06:39:17.607Z,23.20
2018-11-05T06:41:45.867Z,25.80
2018-11-05T06:44:14.062Z,23.33
2018-11-05T06:46:42.193Z,26.60
2018-11-05T06:49:10.392Z,24.47
2018-11-05T06:51:38.573Z,25.27
2018-11-05T06:54:06.786Z,25.17
2018-11-05T06:56:35.138Z,26.10
2018-11-05T06:59:03.338Z,23.60
2018-11-05T07:01:31.957Z,26.10
2018-11-05T07:04:00.170Z,25.10
2018-11-05T07:06:28.429Z,24.73
2018-11-05T07:08:56.694Z,24.50
2018-11-05T07:11:24.972Z,25.40
2018-11-05T07:13:53.086Z,24.53
2018-11-05T07:16:21.278Z,24.30
2018-11-05T07:18:49.672Z,25.90
2018-11-05T07:21:17.861Z,22.90
2018-11-05T07:23:46.085Z,26.40
2018-11-05T07:26:14.282Z,25.67
2018-11-05T07:28:42.473Z,25.40
2018-11-05T07:31:10.682Z,24.30
2018-11-05T07:33:38.932Z,24.37
2018-11-05T07:36:07.089Z,25.97
2018-11-05T07:38:35.286Z,23.83
2018-11-05T07:41:03.498Z,23.27
2018-11-05T07:43:31.697Z,24.93
2018-11-05T07:45:59.905Z,25.60
2018-11-05T07:48:28.089Z,24.47
2018-11-05T07:50:56.302Z,25.50
2018-11-05T07:53:24.505Z,24.27
2018-11-05T07:55:52.748Z,24.63
2018-11-05T07:58:20.950Z,25.60
2018-11-05T08:00:49.163Z,27.07
2018-11-05T08:03:17.346Z,27.43
2018-11-05T08:05:45.555Z,24.83
2018-11-05T08:08:15.787Z,26.30
2018-11-05T08:10:43.972Z,25.70
2018-11-05T08:13:12.171Z,25.07
2018-11-05T08:15:40.402Z,26.83
2018-11-05T08:18:08.557Z,24.57
2018-11-05T08:20:36.757Z,26.80
2018-11-05T08:23:04.975Z,26.10
2018-11-05T08:25:33.177Z,24.80
2018-11-05T08:28:01.369Z,26.57
2018-11-05T08:30:29.571Z,25.80
2018-11-05T08:32:57.780Z,24.90
2018-11-05T08:35:25.995Z,26.03
2018-11-05T08:37:54.546Z,27.80
2018-11-05T08:40:24.800Z,27.33
2018-11-05T08:42:53.760Z,26.97
2018-11-05T08:45:24.193Z,26.77
2018-11-05T08:47:52.405Z,28.50
2018-11-05T08:50:22.046Z,27.37
2018-11-05T08:52:50.111Z,30.30
2018-11-05T08:55:25.988Z,26.80
2018-11-05T08:57:54.191Z,27.27
2018-11-05T09:00:27.850Z,26.40
2018-11-05T09:02:56.169Z,25.83
2018-11-05T09:05:24.536Z,25.37
2018-11-05T09:07:53.526Z,25.70
2018-11-05T09:10:21.895Z,24.97
2018-11-05T09:12:49.941Z,24.67
2018-11-05T09:15:19.394Z,24.43
2018-11-05T09:17:47.979Z,24.53
2018-11-05T09:20:17.187Z,24.83
2018-11-05T09:22:46.462Z,23.40
2018-11-05T09:25:15.489Z,22.70
2018-11-05T09:27:43.734Z,23.70
2018-11-05T09:30:15.095Z,23.40
2018-11-05T09:32:44.120Z,23.33
2018-11-05T09:35:12.347Z,22.57
2018-11-05T09:37:40.551Z,20.20
2018-11-05T09:40:11.115Z,23.33
2018-11-05T09:42:39.942Z,21.67
2018-11-05T09:45:10.994Z,21.60
2018-11-05T09:47:39.202Z,23.40
2018-11-05T09:50:08.469Z,23.37
2018-11-05T09:52:36.786Z,24.53
2018-11-05T09:55:05.210Z,24.17
2018-11-05T09:57:33.425Z,27.30
2018-11-05T10:00:01.722Z,21.47
2018-11-05T10:02:35.226Z,21.80
2018-11-05T10:05:03.650Z,23.97
2018-11-05T10:07:31.682Z,25.90
2018-11-05T10:09:59.891Z,24.67
2018-11-05T10:12:28.113Z,22.17
2018-11-05T10:14:56.575Z,21.70
2018-11-05T10:17:24.828Z,22.80
2018-11-05T10:19:53.031Z,24.73
2018-11-05T10:22:21.231Z,25.70
2018-11-05T10:24:49.505Z,26.23
2018-11-05T10:27:17.653Z,27.03
2018-11-05T10:29:45.853Z,25.20
2018-11-05T10:32:14.067Z,27.33
2018-11-05T10:34:42.280Z,25.07
2018-11-05T10:37:10.489Z,25.93
2018-11-05T10:39:38.697Z,24.87
2018-11-05T10:42:06.913Z,25.03
2018-11-05T10:44:35.468Z,27.50
2018-11-05T10:47:03.682Z,25.97
2018-11-05T10:49:31.895Z,26.93
2018-11-05T10:52:00.224Z,27.77
2018-11-05T10:54:28.345Z,27.47
2018-11-05T10:56:56.615Z,25.43
2018-11-05T10:59:24.762Z,28.63
2018-11-05T11:01:58.448Z,27.40
2018-11-05T11:04:31.817Z,26.67
2018-11-05T11:07:00.222Z,29.00
2018-11-05T11:09:28.471Z,27.20
2018-11-05T11:11:57.173Z,27.37
2018-11-05T11:14:25.388Z,25.37
2018-11-05T11:16:53.637Z,25.20
2018-11-05T11:19:21.814Z,24.20
2018-11-05T11:21:50.080Z,25.63
2018-11-05T11:24:18.742Z,26.00
2018-11-05T11:26:46.996Z,26.30
2018-11-05T11:29:15.378Z,24.10
2018-11-05T11:31:43.489Z,23.80
2018-11-05T11:34:11.729Z,23.63
2018-11-05T11:36:40.059Z,24.97
2018-11-05T11:39:10.052Z,25.60
2018-11-05T11:41:38.266Z,34.00
2018-11-05T11:44:06.599Z,25.90
2018-11-05T11:46:35.182Z,29.17
2018-11-05T11:49:03.386Z,23.90
2018-11-05T11:51:31.609Z,27.40
2018-11-05T11:53:59.845Z,24.97
2018-11-05T11:56:28.310Z,24.73
2018-11-05T11:58:56.505Z,27.37
2018-11-05T12:01:24.719Z,25.70
2018-11-05T12:03:52.961Z,27.33
2018-11-05T12:06:21.166Z,27.60
2018-11-05T12:08:49.661Z,26.53
2018-11-05T12:11:17.891Z,25.60
2018-11-05T12:13:46.088Z,27.60
2018-11-05T12:16:14.391Z,26.80
2018-11-05T12:18:42.751Z,25.80
2018-11-05T12:21:10.992Z,27.97
2018-11-05T12:23:39.198Z,25.70
2018-11-05T12:26:07.399Z,27.50
2018-11-05T12:28:35.606Z,28.20
2018-11-05T12:31:03.815Z,27.60
2018-11-05T12:33:32.038Z,25.77
2018-11-05T12:36:00.240Z,24.80
2018-11-05T12:38:28.434Z,26.60
2018-11-05T12:40:56.637Z,26.10
2018-11-05T12:43:24.835Z,26.40
2018-11-05T12:45:53.045Z,23.77
2018-11-05T12:48:21.245Z,26.13
2018-11-05T12:50:49.538Z,25.90
2018-11-05T12:53:17.666Z,25.60
2018-11-05T12:55:45.942Z,25.37
2018-11-05T12:58:14.146Z,25.87
2018-11-05T13:00:42.357Z,25.70
2018-11-05T13:03:10.592Z,26.63
2018-11-05T13:05:38.789Z,24.07
2018-11-05T13:08:07.028Z,25.70
2018-11-05T13:10:35.234Z,26.27
2018-11-05T13:13:03.478Z,24.10
2018-11-05T13:15:31.654Z,22.63
2018-11-05T13:17:59.859Z,25.00
2018-11-05T13:20:28.077Z,24.83
2018-11-05T13:23:02.877Z,25.30
2018-11-05T13:25:31.118Z,24.60
2018-11-05T13:27:59.338Z,24.80
2018-11-05T13:30:27.525Z,24.10
2018-11-05T13:32:55.737Z,24.17
2018-11-05T13:35:23.936Z,23.90
2018-11-05T13:37:52.617Z,23.80
2018-11-05T13:40:21.656Z,23.20
2018-11-05T13:42:50.435Z,21.83
2018-11-05T13:45:19.119Z,22.20
2018-11-05T13:47:47.947Z,22.73
2018-11-05T13:50:16.250Z,22.07
2018-11-05T13:52:44.148Z,24.63
2018-11-05T13:55:13.559Z,23.00
2018-11-05T13:57:42.838Z,23.83
2018-11-05T14:00:13.181Z,20.13
2018-11-05T14:02:41.377Z,21.90
2018-11-05T14:05:10.238Z,22.60
2018-11-05T14:07:38.737Z,21.20
2018-11-05T14:10:09.245Z,23.00
2018-11-05T14:12:37.612Z,20.93
2018-11-05T14:15:06.158Z,23.33
2018-11-05T14:17:34.394Z,22.60
2018-11-05T14:20:02.610Z,21.53
2018-11-05T14:22:30.917Z,21.97
2018-11-05T14:24:59.115Z,22.50
2018-11-05T14:27:27.500Z,22.57
2018-11-05T14:29:55.900Z,23.63
2018-11-05T14:32:23.755Z,22.03
2018-11-05T14:34:52.018Z,21.87
2018-11-05T14:37:20.821Z,21.50
2018-11-05T14:39:49.010Z,22.53
2018-11-05T14:42:17.244Z,23.07
2018-11-05T14:44:45.453Z,23.77
2018-11-05T14:47:13.675Z,21.63
2018-11-05T14:49:42.073Z,21.00
2018-11-05T14:52:10.281Z,20.40
2018-11-05T14:54:38.599Z,22.40
2018-11-05T14:57:07.004Z,21.20
2018-11-05T14:59:35.230Z,22.20
2018-11-05T15:02:08.931Z,21.67
2018-11-05T15:04:37.181Z,21.70
2018-11-05T15:07:05.590Z,20.90
2018-11-05T15:09:33.799Z,22.20
2018-11-05T15:12:02.050Z,24.00
2018-11-05T15:14:30.452Z,23.10
2018-11-05T15:16:58.913Z,22.97
2018-11-05T15:19:27.890Z,21.70
2018-11-05T15:21:55.802Z,22.13
2018-11-05T15:24:24.034Z,21.50
2018-11-05T15:26:52.390Z,24.83
2018-11-05T15:29:20.441Z,33.67
2018-11-05T15:31:48.649Z,31.00
2018-11-05T15:34:16.863Z,33.27
2018-11-05T15:36:45.061Z,32.57
2018-11-05T15:39:13.266Z,33.50
2018-11-05T15:41:41.468Z,39.13
2018-11-05T15:44:09.682Z,41.37
2018-11-05T15:46:37.891Z,36.57
2018-11-05T15:49:06.110Z,26.90
2018-11-05T15:51:34.474Z,27.53
2018-11-05T15:54:02.570Z,24.17
2018-11-05T15:56:30.782Z,24.43
2018-11-05T15:58:59.022Z,24.10
2018-11-05T16:01:27.293Z,22.90
2018-11-05T16:03:55.510Z,25.20
2018-11-05T16:06:23.865Z,25.10
2018-11-05T16:08:52.134Z,23.73
2018-11-05T16:11:20.341Z,21.80
2018-11-05T16:13:48.542Z,23.50
2018-11-05T16:16:16.738Z,23.90
2018-11-05T16:18:44.977Z,25.63
2018-11-05T16:21:13.189Z,29.63
2018-11-05T16:23:41.536Z,28.83
2018-11-05T16:26:09.696Z,24.20
2018-11-05T16:28:37.899Z,26.07
2018-11-05T16:31:06.207Z,25.83
2018-11-05T16:33:34.504Z,24.03
2018-11-05T16:36:02.713Z,24.23
2018-11-05T16:38:31.009Z,22.13
2018-11-05T16:40:59.139Z,24.30
2018-11-05T16:43:27.374Z,22.73
2018-11-05T16:45:55.670Z,24.43
2018-11-05T16:48:23.843Z,25.27
2018-11-05T16:50:52.103Z,27.17
2018-11-05T16:53:20.387Z,27.30
2018-11-05T16:55:48.579Z,25.57
2018-11-05T16:58:16.850Z,26.83
2018-11-05T17:00:45.170Z,26.53
2018-11-05T17:03:13.341Z,27.30
2018-11-05T17:05:41.473Z,24.83
2018-11-05T17:08:09.665Z,27.10
2018-11-05T17:10:37.868Z,29.33
2018-11-05T17:13:06.389Z,27.23
2018-11-05T17:15:34.556Z,30.00
2018-11-05T17:18:02.754Z,28.23
2018-11-05T17:20:30.952Z,27.20
2018-11-05T17:22:59.129Z,27.20
2018-11-05T17:25:27.399Z,26.60
2018-11-05T17:27:55.623Z,28.60
2018-11-05T17:30:23.812Z,29.40
2018-11-05T17:32:52.142Z,29.10
2018-11-05T17:35:20.430Z,29.07
2018-11-05T17:37:48.906Z,29.67
2018-11-05T17:40:18.656Z,31.30
2018-11-05T17:42:46.768Z,30.67
2018-11-05T17:45:16.298Z,31.40
2018-11-05T17:47:44.761Z,30.80
2018-11-05T17:50:16.523Z,34.30
2018-11-05T17:52:45.007Z,30.67
2018-11-05T17:55:13.502Z,29.87
2018-11-05T17:57:42.765Z,27.83
2018-11-05T18:00:13.669Z,27.90
2018-11-05T18:02:41.870Z,27.10
2018-11-05T18:05:10.087Z,30.20
2018-11-05T18:07:38.273Z,28.70
2018-11-05T18:10:07.110Z,32.13
2018-11-05T18:12:35.309Z,28.30
2018-11-05T18:15:03.805Z,26.20
2018-11-05T18:17:31.993Z,26.20
2018-11-05T18:20:00.237Z,24.63
2018-11-05T18:22:28.434Z,26.97
2018-11-05T18:24:56.650Z,27.60
2018-11-05T18:27:24.849Z,25.10
2018-11-05T18:29:53.058Z,27.13
2018-11-05T18:32:22.045Z,27.00
2018-11-05T18:34:51.764Z,26.47
2018-11-05T18:37:20.278Z,26.10
2018-11-05T18:39:48.806Z,26.00
2018-11-05T18:42:17.189Z,25.10
2018-11-05T18:44:45.509Z,30.07
2018-11-05T18:47:13.735Z,26.40
2018-11-05T18:49:48.702Z,27.17
2018-11-05T18:52:16.889Z,28.67
2018-11-05T18:54:45.255Z,25.13
2018-11-05T18:57:13.675Z,25.37
2018-11-05T18:59:42.141Z,25.60
2018-11-05T19:02:13.442Z,26.63
2018-11-05T19:04:41.788Z,30.10
2018-11-05T19:07:10.189Z,29.43
2018-11-05T19:09:38.446Z,29.93
2018-11-05T19:12:06.654Z,30.57
2018-11-05T19:14:34.862Z,30.40
2018-11-05T19:17:03.053Z,29.87
2018-11-05T19:19:31.258Z,30.47
2018-11-05T19:21:59.490Z,29.50
2018-11-05T19:24:27.950Z,29.20
2018-11-05T19:26:55.914Z,27.20
2018-11-05T19:29:24.152Z,23.80
2018-11-05T19:31:52.374Z,25.07
2018-11-05T19:34:20.580Z,23.93
2018-11-05T19:36:48.846Z,23.63
2018-11-05T19:39:17.117Z,22.40
2018-11-05T19:41:45.460Z,21.23
2018-11-05T19:44:13.702Z,21.20
2018-11-05T19:46:41.923Z,21.47
2018-11-05T19:51:58.041Z,20.83
2018-11-05T19:54:26.246Z,21.90
2018-11-05T19:56:54.528Z,26.83
2018-11-05T19:59:22.762Z,23.03
2018-11-05T20:01:50.961Z,20.50
2018-11-05T20:04:19.168Z,21.40
2018-11-05T20:06:47.369Z,21.40
2018-11-05T20:09:15.575Z,20.80
2018-11-05T20:11:43.771Z,21.97
2018-11-05T20:14:11.966Z,24.40
2018-11-05T20:16:40.210Z,23.97
2018-11-05T20:19:08.401Z,22.97
2018-11-05T20:21:36.573Z,23.10
2018-11-05T20:24:04.821Z,22.07
2018-11-05T20:26:33.119Z,21.30
2018-11-05T20:29:01.479Z,23.03
2018-11-05T20:31:29.879Z,21.80
2018-11-05T20:33:58.074Z,22.20
2018-11-05T20:36:26.064Z,21.30
2018-11-05T20:38:54.263Z,23.80
2018-11-05T20:41:22.462Z,22.40
2018-11-05T20:43:50.650Z,19.47
2018-11-05T20:46:18.858Z,20.90
2018-11-05T20:48:47.047Z,19.30
2018-11-05T20:51:15.390Z,18.50
2018-11-05T20:53:43.640Z,18.40
2018-11-05T20:56:11.892Z,18.80
2018-11-05T20:58:40.090Z,18.50
2018-11-05T21:01:08.491Z,19.90
2018-11-05T21:10:00.079Z,19.80
2018-11-05T21:18:10.238Z,18.87
2018-11-05T21:20:38.444Z,20.03
2018-11-05T21:23:06.728Z,17.93
2018-11-05T21:25:34.873Z,18.33
2018-11-05T21:28:03.066Z,19.93
2018-11-05T21:30:31.352Z,18.23
2018-11-05T21:32:59.682Z,18.67
2018-11-05T21:35:27.777Z,19.83
2018-11-05T21:37:55.987Z,18.10
2018-11-05T21:40:24.201Z,20.00
2018-11-05T21:42:52.398Z,18.90
2018-11-05T21:45:20.616Z,18.87
2018-11-05T21:47:48.822Z,18.23
2018-11-05T21:50:18.305Z,18.70
2018-11-05T21:52:46.883Z,18.87
2018-11-05T21:55:15.095Z,18.50
2018-11-05T21:57:44.575Z,17.77
2018-11-05T22:00:14.501Z,18.53
2018-11-05T22:02:47.993Z,17.03
2018-11-05T22:05:16.469Z,17.80
2018-11-05T22:07:44.736Z,19.30
2018-11-05T22:10:13.490Z,18.10
2018-11-05T22:12:42.101Z,17.90
2018-11-05T22:15:10.313Z,19.60
2018-11-05T22:17:38.513Z,18.73
2018-11-05T22:20:07.796Z,18.77
2018-11-05T22:22:36.129Z,18.37
2018-11-05T22:25:04.345Z,18.50
2018-11-05T22:27:32.603Z,18.77
2018-11-05T22:30:01.482Z,16.90
2018-11-05T22:32:30.081Z,17.17
2018-11-05T22:34:59.157Z,16.70
2018-11-05T22:37:27.366Z,18.00
2018-11-05T22:39:55.564Z,17.23
2018-11-05T22:42:23.777Z,17.43
2018-11-05T22:44:51.972Z,16.03
2018-11-05T22:47:20.181Z,18.17
2018-11-05T22:49:48.370Z,16.83
2018-11-05T22:52:16.577Z,16.63
2018-11-05T22:54:44.765Z,18.13
2018-11-05T22:57:12.966Z,19.50
2018-11-05T22:59:41.153Z,22.20
2018-11-05T23:02:09.353Z,21.40
2018-11-05T23:04:38.079Z,21.80
2018-11-05T23:07:06.297Z,21.97
2018-11-05T23:09:34.490Z,21.67
2018-11-05T23:12:02.692Z,21.90
2018-11-05T23:14:30.883Z,23.50
2018-11-05T23:16:59.270Z,23.80
2018-11-05T23:19:27.470Z,24.20
2018-11-05T23:21:55.673Z,22.70
2018-11-05T23:24:23.893Z,21.27
2018-11-05T23:26:52.098Z,20.40
2018-11-05T23:29:20.291Z,22.00
2018-11-05T23:31:48.507Z,22.10
2018-11-05T23:34:18.166Z,23.13
2018-11-05T23:36:48.727Z,24.87
2018-11-05T23:39:16.906Z,24.23
2018-11-05T23:41:45.114Z,19.90
2018-11-05T23:44:13.362Z,21.43
2018-11-05T23:46:41.517Z,22.20
2018-11-05T23:49:09.710Z,20.90
2018-11-05T23:51:37.934Z,23.07
2018-11-05T23:54:06.359Z,20.23
2018-11-05T23:56:34.578Z,22.80
2018-11-05T23:59:02.843Z,19.10
